Time;durP1;ratioP1;P1;durP2;ratioP2;P2;SDS_P1;SDS_P2;PMS_P1;PMS_P2;Temp;Humidity;BMP_temperature;BMP_pressure;BME280_temperature;BME280_humidity;BME280_pressure;Samples;Min_cycle;Max_cycle;Signal;HPM_P1;HPM_P2
2022/07/16 00:01:59;;;;;;;;;;;;;;;12.10;100.00;100568.78;3054102;19;1146;-50
2022/07/16 00:03:03;;;;;;;;;;;;;;;12.14;100.00;100570.28;3052402;19;1554;-51
2022/07/16 00:04:05;;;;;;;;;;;;;;;12.19;100.00;100565.50;3052914;19;1325;-50
2022/07/16 00:05:10;;;;;;;;;;;;;;;12.23;100.00;100564.31;3052111;19;1313;-50
2022/07/16 00:06:12;;;;;;;;;;;;;;;12.27;100.00;100559.63;3053521;19;2261;-49
2022/07/16 00:07:16;;;;;;;;;;;;;;;12.30;100.00;100569.28;3051047;19;1772;-50
2022/07/16 00:08:18;;;;;;;;;;;;;;;12.33;100.00;100577.06;3046567;19;1047;-50
2022/07/16 00:09:23;;;;;;;;;;;;;;;12.36;100.00;100577.72;3046064;19;1672;-49
2022/07/16 00:10:25;;;;;;;;;;;;;;;12.38;100.00;100565.09;3046943;19;1131;-49
2022/07/16 00:11:30;;;;;;;;;;;;;;;12.44;100.00;100579.88;3047922;19;1055;-49
2022/07/16 00:12:34;;;;;;;;;;;;;;;12.47;100.00;100585.88;3048617;19;1678;-50
2022/07/16 00:13:36;;;;;;;;;;;;;;;12.51;100.00;100575.84;3047892;19;932;-49
2022/07/16 00:14:40;;;;;;;;;;;;;;;12.55;100.00;100572.88;3050627;19;986;-49
2022/07/16 00:15:42;;;;;;;;;;;;;;;12.62;100.00;100576.81;3055409;19;1042;-49
2022/07/16 00:16:47;;;;;;;;;;;;;;;12.68;100.00;100577.38;3056357;19;942;-49
2022/07/16 00:19:15;;;;;;;;;;;;;;;12.75;100.00;100584.00;3056548;19;1191;-49
2022/07/16 00:19:20;;;;;;;;;;;;;;;12.82;100.00;100583.47;3056802;19;1082;-49
2022/07/16 00:20:21;;;;;;;;;;;;;;;12.87;100.00;100577.81;3057374;19;1166;-49
2022/07/16 00:21:24;;;;;;;;;;;;;;;12.93;100.00;100580.03;3055933;19;1852;-49
2022/07/16 00:22:28;;;;;;;;;;;;;;;12.97;100.00;100584.22;3055126;19;1197;-50
2022/07/16 00:23:30;;;;;;;;;;;;;;;12.93;100.00;100570.19;3055453;19;1129;-50
2022/07/16 00:24:34;;;;;;;;;;;;;;;13.06;100.00;100577.34;3056828;19;1137;-50
2022/07/16 00:25:36;;;;;;;;;;;;;;;13.10;100.00;100579.72;3056749;19;1164;-50
2022/07/16 00:26:41;;;;;;;;;;;;;;;13.13;100.00;100578.66;3056313;19;985;-49
2022/07/16 00:27:43;;;;;;;;;;;;;;;13.16;100.00;100584.66;3056505;19;1000;-49
2022/07/16 00:28:47;;;;;;;;;;;;;;;13.18;100.00;100582.75;3056880;19;1158;-49
2022/07/16 00:29:49;;;;;;;;;;;;;;;13.21;100.00;100584.34;3052555;19;895;-50
2022/07/16 00:30:53;;;;;;;;;;;;;;;13.22;100.00;100580.72;3047821;19;2364;-50
2022/07/16 00:31:55;;;;;;;;;;;;;;;13.23;100.00;100585.97;3047456;19;1180;-50
2022/07/16 00:33:00;;;;;;;;;;;;;;;13.24;100.00;100576.09;3050079;19;1675;-49
2022/07/16 00:34:05;;;;;;;;;;;;;;;13.25;100.00;100589.41;3051372;19;956;-49
2022/07/16 00:35:10;;;;;;;;;;;;;;;13.25;100.00;100586.72;3051308;19;1578;-48
2022/07/16 00:36:11;;;;;;;;;;;;;;;13.27;100.00;100584.78;3050759;19;1301;-49
2022/07/16 00:37:16;;;;;;;;;;;;;;;13.26;100.00;100580.41;3054756;19;1056;-50
2022/07/16 00:38:18;;;;;;;;;;;;;;;13.28;100.00;100586.47;3055414;19;1390;-49
2022/07/16 00:39:22;;;;;;;;;;;;;;;13.28;100.00;100591.00;3055189;19;1290;-49
2022/07/16 00:40:27;;;;;;;;;;;;;;;13.29;100.00;100590.88;3055178;19;1409;-49
2022/07/16 00:41:31;;;;;;;;;;;;;;;13.30;100.00;100589.91;3055878;19;1895;-50
2022/07/16 00:42:33;;;;;;;;;;;;;;;13.30;100.00;100586.38;3056160;19;1199;-50
2022/07/16 00:43:51;;;;;;;;;;;;;;;13.31;100.00;100582.72;3056773;19;1673;-50
2022/07/16 00:44:53;;;;;;;;;;;;;;;13.31;100.00;100588.94;3056625;19;1021;-50
2022/07/16 00:45:57;;;;;;;;;;;;;;;13.31;100.00;100583.59;3056410;19;1709;-50
2022/07/16 00:47:07;;;;;;;;;;;;;;;13.31;100.00;100583.59;3056621;19;1171;-50
2022/07/16 00:48:11;;;;;;;;;;;;;;;13.32;100.00;100585.31;3056116;19;973;-51
2022/07/16 00:49:14;;;;;;;;;;;;;;;13.31;100.00;100580.91;3056585;19;960;-50
2022/07/16 00:50:18;;;;;;;;;;;;;;;13.32;100.00;100579.94;3055762;19;1663;-49
2022/07/16 00:51:22;;;;;;;;;;;;;;;13.31;100.00;100578.22;3056228;19;1015;-50
2022/07/16 00:52:26;;;;;;;;;;;;;;;13.33;100.00;100587.03;3050959;19;986;-50
2022/07/16 00:53:28;;;;;;;;;;;;;;;13.31;100.00;100570.19;3049295;19;925;-49
2022/07/16 00:54:34;;;;;;;;;;;;;;;13.32;100.00;100585.31;3046296;19;1177;-50
2022/07/16 00:55:36;;;;;;;;;;;;;;;13.31;100.00;100577.38;3049020;19;1039;-50
2022/07/16 00:56:40;;;;;;;;;;;;;;;13.29;100.00;100580.16;3051514;19;1173;-49
2022/07/16 00:57:42;;;;;;;;;;;;;;;13.30;100.00;100579.19;3051280;19;962;-50
2022/07/16 00:58:47;;;;;;;;;;;;;;;13.29;100.00;100580.16;3050701;19;1711;-49
2022/07/16 00:59:49;;;;;;;;;;;;;;;13.28;100.00;100575.75;3055096;19;1077;-51
2022/07/16 01:00:54;;;;;;;;;;;;;;;13.28;100.00;100578.44;3055921;19;1047;-49
2022/07/16 01:01:56;;;;;;;;;;;;;;;13.28;100.00;100570.41;3055411;19;1838;-50
2022/07/16 01:03:01;;;;;;;;;;;;;;;13.28;100.00;100578.44;3055606;19;1638;-49
2022/07/16 01:04:04;;;;;;;;;;;;;;;13.28;100.00;100578.44;3055873;19;1071;-49
2022/07/16 01:05:09;;;;;;;;;;;;;;;13.28;100.00;100573.06;3055587;19;1141;-49
2022/07/16 01:06:11;;;;;;;;;;;;;;;13.29;100.00;100580.16;3056718;19;1134;-50
2022/07/16 01:07:16;;;;;;;;;;;;;;;13.30;100.00;100576.50;3055059;19;1410;-49
2022/07/16 01:08:18;;;;;;;;;;;;;;;13.33;100.00;100575.44;3055295;19;1237;-49
2022/07/16 01:09:22;;;;;;;;;;;;;;;13.32;100.00;100573.72;3055789;19;1197;-49
2022/07/16 01:10:24;;;;;;;;;;;;;;;13.33;100.00;100581.66;3056013;19;980;-50
2022/07/16 01:11:33;;;;;;;;;;;;;;;13.33;100.00;100570.94;3055265;19;1110;-49
2022/07/16 01:12:36;;;;;;;;;;;;;;;13.34;100.00;100567.28;3055545;19;1077;-49
2022/07/16 01:13:41;;;;;;;;;;;;;;;13.35;100.00;100573.50;3054837;19;1577;-49
2022/07/16 01:14:43;;;;;;;;;;;;;;;13.37;100.00;100565.38;3050370;19;1377;-50
2022/07/16 01:15:48;;;;;;;;;;;;;;;13.39;100.00;100566.13;3047345;19;905;-50
2022/07/16 01:16:50;;;;;;;;;;;;;;;13.39;100.00;100564.28;3047659;19;1557;-49
2022/07/16 01:17:54;;;;;;;;;;;;;;;13.42;100.00;100564.03;3049560;19;1072;-49
2022/07/16 01:18:56;;;;;;;;;;;;;;;13.37;100.00;100546.59;3049921;19;1079;-49
2022/07/16 01:20:00;;;;;;;;;;;;;;;13.45;100.00;100568.34;3049109;19;1226;-49
2022/07/16 01:21:02;;;;;;;;;;;;;;;13.46;100.00;100565.56;3050933;19;1202;-50
2022/07/16 01:22:07;;;;;;;;;;;;;;;13.49;100.00;100564.47;3053661;19;1846;-50
2022/07/16 01:23:09;;;;;;;;;;;;;;;13.49;100.00;100564.47;3055915;19;1003;-49
2022/07/16 01:24:13;;;;;;;;;;;;;;;13.50;100.00;100559.00;3055965;19;1065;-50
2022/07/16 01:25:15;;;;;;;;;;;;;;;13.50;100.00;100559.00;3056037;19;1139;-49
2022/07/16 01:26:20;;;;;;;;;;;;;;;13.51;100.00;100567.91;3055149;19;1158;-50
2022/07/16 01:27:22;;;;;;;;;;;;;;;13.51;100.00;100551.81;3055582;19;1045;-49
2022/07/16 01:28:26;;;;;;;;;;;;;;;13.53;100.00;100560.59;3055473;19;1327;-50
2022/07/16 01:29:29;;;;;;;;;;;;;;;13.54;100.00;100562.31;3055854;19;1007;-50
2022/07/16 01:30:34;;;;;;;;;;;;;;;13.53;100.00;100553.41;3055518;19;1106;-49
2022/07/16 01:31:38;;;;;;;;;;;;;;;13.55;100.00;100556.84;3055480;19;1039;-49
2022/07/16 01:32:40;;;;;;;;;;;;;;;13.56;100.00;100557.69;3055652;19;908;-50
2022/07/16 01:34:24;;;;;;;;;;;;;;;13.56;100.00;100555.00;3055751;19;1099;-49
2022/07/16 01:35:07;;;;;;;;;;;;;;;13.56;100.00;100550.50;3056123;19;1851;-49
2022/07/16 01:36:15;;;;;;;;;;;;;;;13.57;100.00;100551.38;3055191;19;1644;-50
2022/07/16 01:37:17;;;;;;;;;;;;;;;13.57;100.00;100551.38;3049791;19;1435;-50
2022/07/16 01:38:22;;;;;;;;;;;;;;;13.57;100.00;100554.03;3047697;19;1131;-49
2022/07/16 01:39:24;;;;;;;;;;;;;;;13.57;100.00;100551.38;3048077;19;1382;-50
2022/07/16 01:40:29;;;;;;;;;;;;;;;13.58;100.00;100547.72;3049666;19;1027;-49
2022/07/16 01:41:30;;;;;;;;;;;;;;;13.58;100.00;100553.06;3050758;19;982;-51
2022/07/16 01:42:35;;;;;;;;;;;;;;;13.57;100.00;100546.00;3049577;19;1873;-50
2022/07/16 01:43:37;;;;;;;;;;;;;;;13.57;100.00;100546.84;3050441;19;1054;-50
2022/07/16 01:44:41;;;;;;;;;;;;;;;13.56;100.00;100547.81;3054880;19;1125;-50
2022/07/16 01:45:43;;;;;;;;;;;;;;;13.56;100.00;100544.28;3056256;19;1015;-50
2022/07/16 01:46:48;;;;;;;;;;;;;;;13.53;100.00;100549.88;3055008;19;2119;-50
2022/07/16 01:47:50;;;;;;;;;;;;;;;13.55;100.00;100547.94;3056171;19;1077;-49
2022/07/16 01:48:54;;;;;;;;;;;;;;;13.54;100.00;100554.25;3055260;19;1118;-50
2022/07/16 01:49:56;;;;;;;;;;;;;;;13.54;100.00;100551.56;3055690;19;1062;-50
2022/07/16 01:51:00;;;;;;;;;;;;;;;13.54;100.00;100548.91;3054488;19;1682;-49
2022/07/16 01:52:06;;;;;;;;;;;;;;;13.55;100.00;100547.94;3055438;19;1087;-49
2022/07/16 01:53:10;;;;;;;;;;;;;;;13.53;100.00;100550.72;3055612;19;996;-50
2022/07/16 01:54:13;;;;;;;;;;;;;;;13.53;100.00;100545.34;3054898;19;1317;-49
2022/07/16 01:55:17;;;;;;;;;;;;;;;13.53;100.00;100545.34;3055495;19;930;-49
2022/07/16 01:56:19;;;;;;;;;;;;;;;13.53;100.00;100549.88;3054997;19;947;-50
2022/07/16 01:57:24;;;;;;;;;;;;;;;13.53;100.00;100541.81;3055370;19;1060;-49
2022/07/16 01:58:26;;;;;;;;;;;;;;;13.51;100.00;100546.47;3055585;19;1341;-49
2022/07/16 01:59:31;;;;;;;;;;;;;;;13.50;100.00;100542.06;3050394;19;1078;-50
2022/07/16 02:00:33;;;;;;;;;;;;;;;13.50;100.00;100542.94;3046523;19;1100;-49
2022/07/16 02:01:38;;;;;;;;;;;;;;;13.49;100.00;100543.03;3046790;19;1133;-53
2022/07/16 02:02:40;;;;;;;;;;;;;;;13.49;100.00;100540.34;3049107;19;1862;-49
2022/07/16 02:03:44;;;;;;;;;;;;;;;13.40;100.00;100532.97;3049993;19;1457;-50
2022/07/16 02:04:49;;;;;;;;;;;;;;;13.47;100.00;100534.25;3049297;19;2508;-50
2022/07/16 02:05:51;;;;;;;;;;;;;;;13.47;100.00;100539.59;3048907;19;1104;-49
2022/07/16 02:06:55;;;;;;;;;;;;;;;13.46;100.00;100538.75;3054195;19;896;-50
2022/07/16 02:07:57;;;;;;;;;;;;;;;13.45;100.00;100538.84;3055000;19;1056;-49
2022/07/16 02:09:01;;;;;;;;;;;;;;;13.44;100.00;100542.50;3055063;19;1669;-49
2022/07/16 02:10:03;;;;;;;;;;;;;;;13.44;100.00;100545.16;3054958;19;1129;-50
2022/07/16 02:11:08;;;;;;;;;;;;;;;13.44;100.00;100546.03;3055275;19;976;-50
2022/07/16 02:12:10;;;;;;;;;;;;;;;13.44;100.00;100550.53;3055191;19;930;-49
2022/07/16 02:13:14;;;;;;;;;;;;;;;13.44;100.00;100550.53;3054858;19;1004;-50
2022/07/16 02:14:16;;;;;;;;;;;;;;;13.45;100.00;100552.25;3054970;19;1077;-49
2022/07/16 02:15:21;;;;;;;;;;;;;;;13.45;100.00;100546.88;3055131;19;1215;-50
2022/07/16 02:16:23;;;;;;;;;;;;;;;13.48;100.00;100552.03;3055450;19;1082;-50
2022/07/16 02:17:27;;;;;;;;;;;;;;;13.48;100.00;100550.22;3054477;19;984;-50
2022/07/16 02:18:29;;;;;;;;;;;;;;;13.49;100.00;100543.03;3053752;19;959;-50
2022/07/16 02:19:34;;;;;;;;;;;;;;;13.50;100.00;100547.44;3054470;19;990;-50
2022/07/16 02:20:36;;;;;;;;;;;;;;;13.51;100.00;100543.78;3055118;19;908;-50
2022/07/16 02:21:40;;;;;;;;;;;;;;;13.53;100.00;100544.50;3051326;19;1063;-49
2022/07/16 02:22:42;;;;;;;;;;;;;;;13.54;100.00;100547.06;3046092;19;1846;-49
2022/07/16 02:23:47;;;;;;;;;;;;;;;13.56;100.00;100544.28;3046826;19;995;-49
2022/07/16 02:24:49;;;;;;;;;;;;;;;13.58;100.00;100542.34;3048156;19;990;-49
2022/07/16 02:25:53;;;;;;;;;;;;;;;13.59;100.00;100538.69;3049832;19;899;-49
2022/07/16 02:26:55;;;;;;;;;;;;;;;13.59;100.00;100541.38;3049309;19;1092;-49
2022/07/16 02:28:09;;;;;;;;;;;;;;;13.59;100.00;100549.44;3049951;19;1151;-50
2022/07/16 02:29:11;;;;;;;;;;;;;;;13.58;100.00;100537.00;3053087;19;832;-50
2022/07/16 02:30:16;;;;;;;;;;;;;;;13.60;100.00;100540.41;3054859;19;923;-50
2022/07/16 02:31:18;;;;;;;;;;;;;;;13.61;100.00;100542.13;3054846;19;1661;-49
2022/07/16 02:32:22;;;;;;;;;;;;;;;13.61;100.00;100542.13;3054275;19;990;-49
2022/07/16 02:33:24;;;;;;;;;;;;;;;13.60;100.00;100538.59;3055257;19;1106;-50
2022/07/16 02:34:29;;;;;;;;;;;;;;;13.60;100.00;100529.69;3054405;19;1125;-50
2022/07/16 02:35:30;;;;;;;;;;;;;;;13.60;100.00;100540.41;3054827;19;1159;-49
2022/07/16 02:36:35;;;;;;;;;;;;;;;13.61;100.00;100544.81;3054074;19;1099;-50
2022/07/16 02:37:37;;;;;;;;;;;;;;;13.50;100.00;100518.78;3054977;19;970;-49
2022/07/16 02:38:41;;;;;;;;;;;;;;;13.60;100.00;100524.34;3053011;19;1632;-50
2022/07/16 02:39:43;;;;;;;;;;;;;;;13.60;100.00;100529.69;3054889;19;1068;-50
2022/07/16 02:40:48;;;;;;;;;;;;;;;13.61;100.00;100531.41;3054740;19;1291;-50
2022/07/16 02:41:49;;;;;;;;;;;;;;;13.61;100.00;100531.41;3054695;19;1133;-50
2022/07/16 02:42:54;;;;;;;;;;;;;;;13.62;100.00;100525.94;3054293;19;1861;-49
2022/07/16 02:43:56;;;;;;;;;;;;;;;13.63;100.00;100535.69;3052136;19;1016;-51
2022/07/16 02:45:00;;;;;;;;;;;;;;;13.64;100.00;100523.16;3047536;19;1721;-50
2022/07/16 02:46:02;;;;;;;;;;;;;;;13.65;100.00;100528.38;3047285;19;1351;-50
2022/07/16 02:47:06;;;;;;;;;;;;;;;13.66;100.00;100530.09;3045508;19;2328;-49
2022/07/16 02:48:10;;;;;;;;;;;;;;;13.68;100.00;100535.34;3049140;19;1405;-50
2022/07/16 02:49:14;;;;;;;;;;;;;;;13.68;100.00;100528.16;3049370;19;1174;-50
2022/07/16 02:50:16;;;;;;;;;;;;;;;13.68;100.00;100529.97;3049887;19;944;-50
2022/07/16 02:51:20;;;;;;;;;;;;;;;13.70;100.00;100530.72;3050826;19;1633;-49
2022/07/16 02:52:22;;;;;;;;;;;;;;;13.70;100.00;100528.03;3054400;19;1039;-49
2022/07/16 02:53:27;;;;;;;;;;;;;;;13.72;100.00;100527.94;3054728;19;1583;-50
2022/07/16 02:54:29;;;;;;;;;;;;;;;13.71;100.00;100532.44;3054359;19;1281;-50
2022/07/16 02:55:33;;;;;;;;;;;;;;;13.70;100.00;100525.34;3054187;19;1082;-50
2022/07/16 02:56:35;;;;;;;;;;;;;;;13.71;100.00;100527.06;3054034;19;1079;-50
2022/07/16 02:57:39;;;;;;;;;;;;;;;13.72;100.00;100526.09;3054603;19;1158;-50
2022/07/16 02:58:41;;;;;;;;;;;;;;;13.73;100.00;100526.97;3054848;19;1693;-50
2022/07/16 02:59:46;;;;;;;;;;;;;;;13.75;100.00;100523.22;3054060;19;1083;-50
2022/07/16 03:00:47;;;;;;;;;;;;;;;13.75;100.00;100527.72;3054643;19;972;-50
2022/07/16 03:01:52;;;;;;;;;;;;;;;13.74;100.00;100518.81;3053843;19;1024;-49
2022/07/16 03:02:54;;;;;;;;;;;;;;;13.74;100.00;100521.50;3054733;19;1184;-50
2022/07/16 03:03:59;;;;;;;;;;;;;;;13.75;100.00;100523.22;3052919;19;1838;-49
2022/07/16 03:05:01;;;;;;;;;;;;;;;13.76;100.00;100524.91;3054520;19;958;-50
2022/07/16 03:06:06;;;;;;;;;;;;;;;13.77;100.00;100525.75;3054024;19;1652;-50
2022/07/16 03:07:07;;;;;;;;;;;;;;;13.80;100.00;100530.88;3047364;19;947;-49
2022/07/16 03:08:12;;;;;;;;;;;;;;;13.81;100.00;100528.09;3046115;19;1082;-49
2022/07/16 03:09:14;;;;;;;;;;;;;;;13.82;100.00;100524.44;3046315;19;1466;-49
2022/07/16 03:10:18;;;;;;;;;;;;;;;13.83;100.00;100526.16;3049209;19;1063;-48
2022/07/16 03:11:20;;;;;;;;;;;;;;;13.84;100.00;100525.19;3048756;19;1172;-50
2022/07/16 03:12:25;;;;;;;;;;;;;;;13.85;100.00;100526.06;3047373;19;1650;-49
2022/07/16 03:13:26;;;;;;;;;;;;;;;13.88;100.00;100526.69;3049246;19;1167;-50
2022/07/16 03:14:31;;;;;;;;;;;;;;;13.90;100.00;100532.78;3054142;19;1147;-49
2022/07/16 03:15:33;;;;;;;;;;;;;;;13.93;100.00;100526.31;3054527;19;1356;-50
2022/07/16 03:16:37;;;;;;;;;;;;;;;13.93;100.00;100526.31;3054012;19;1191;-49
2022/07/16 03:17:39;;;;;;;;;;;;;;;13.96;100.00;100521.59;3053825;19;963;-50
2022/07/16 03:18:44;;;;;;;;;;;;;;;13.97;100.00;100528.69;3054552;19;1184;-50
2022/07/16 03:19:46;;;;;;;;;;;;;;;14.00;100.00;100527.59;3054769;19;966;-50
2022/07/16 03:20:50;;;;;;;;;;;;;;;14.01;100.00;100530.13;3053970;19;1011;-50
2022/07/16 03:21:52;;;;;;;;;;;;;;;14.01;100.00;100524.78;3054660;19;918;-50
2022/07/16 03:22:56;;;;;;;;;;;;;;;14.04;100.00;100529.06;3054034;19;984;-50
2022/07/16 03:23:58;;;;;;;;;;;;;;;14.06;100.00;100527.97;3053278;19;1854;-50
2022/07/16 03:25:03;;;;;;;;;;;;;;;14.09;100.00;100528.72;3053551;19;1652;-50
2022/07/16 03:26:05;;;;;;;;;;;;;;;14.10;100.00;100528.63;3054379;19;1043;-50
2022/07/16 03:27:10;;;;;;;;;;;;;;;14.13;100.00;100532.91;3054480;19;972;-51
2022/07/16 03:28:12;;;;;;;;;;;;;;;14.15;100.00;100534.47;3054417;19;1354;-49
2022/07/16 03:29:16;;;;;;;;;;;;;;;14.16;100.00;100530.81;3047250;19;1195;-50
2022/07/16 03:30:18;;;;;;;;;;;;;;;14.21;100.00;100530.47;3046176;19;1004;-50
2022/07/16 03:31:23;;;;;;;;;;;;;;;14.23;100.00;100528.53;3046378;19;1027;-50
2022/07/16 03:32:24;;;;;;;;;;;;;;;14.26;100.00;100522.91;3048511;19;894;-49
2022/07/16 03:33:29;;;;;;;;;;;;;;;14.28;100.00;100526.34;3048309;19;1594;-50
2022/07/16 03:34:32;;;;;;;;;;;;;;;14.32;100.00;100530.50;3049939;19;1264;-50
2022/07/16 03:35:36;;;;;;;;;;;;;;;14.32;100.00;100538.56;3048607;19;1832;-50
2022/07/16 03:36:38;;;;;;;;;;;;;;;14.34;100.00;100548.22;3053262;19;1396;-50
2022/07/16 03:39:00;;;;;;;;;;;;;;;14.39;100.00;100539.81;3053723;19;1264;-49
2022/07/16 03:40:05;;;;;;;;;;;;;;;14.42;100.00;100542.28;3053980;19;1065;-50
2022/07/16 03:41:07;;;;;;;;;;;;;;;14.43;100.00;100546.69;3053705;19;908;-50
2022/07/16 03:42:11;;;;;;;;;;;;;;;14.46;100.00;100549.16;3053991;19;1038;-50
2022/07/16 03:43:13;;;;;;;;;;;;;;;14.48;100.00;100540.97;3053948;19;986;-50
2022/07/16 03:44:18;;;;;;;;;;;;;;;14.51;100.00;100543.41;3052762;19;1849;-50
2022/07/16 03:45:20;;;;;;;;;;;;;;;14.54;100.00;100535.97;3053994;19;1049;-50
2022/07/16 03:46:24;;;;;;;;;;;;;;;14.56;100.00;100538.53;3054197;19;1058;-50
2022/07/16 03:47:26;;;;;;;;;;;;;;;14.61;100.00;100544.44;3052942;19;1306;-50
2022/07/16 03:48:31;;;;;;;;;;;;;;;14.63;100.00;100537.09;3054177;19;968;-50
2022/07/16 03:49:32;;;;;;;;;;;;;;;14.66;100.00;100543.09;3052898;19;1014;-50
2022/07/16 03:50:37;;;;;;;;;;;;;;;14.69;100.00;100529.41;3052772;19;1262;-50
2022/07/16 03:51:39;;;;;;;;;;;;;;;14.72;100.00;100537.25;3045969;19;1179;-50
2022/07/16 03:52:43;;;;;;;;;;;;;;;14.74;100.00;100537.97;3045808;19;948;-50
2022/07/16 03:53:45;;;;;;;;;;;;;;;14.77;100.00;100540.41;3045859;19;983;-49
2022/07/16 03:54:50;;;;;;;;;;;;;;;14.81;100.00;100540.19;3047777;19;1002;-50
2022/07/16 03:55:52;;;;;;;;;;;;;;;14.83;100.00;100548.97;3048022;19;1177;-49
2022/07/16 03:56:56;;;;;;;;;;;;;;;14.84;100.00;100542.63;3048665;19;966;-49
2022/07/16 03:57:58;;;;;;;;;;;;;;;14.86;100.00;100548.72;3048602;19;1326;-50
2022/07/16 03:59:03;;;;;;;;;;;;;;;14.90;100.00;100555.56;3053216;19;932;-50
2022/07/16 04:00:05;;;;;;;;;;;;;;;14.91;100.00;100554.59;3053094;19;1072;-49
2022/07/16 04:01:09;;;;;;;;;;;;;;;14.92;100.00;100557.16;3053385;19;1621;-50
2022/07/16 04:02:11;;;;;;;;;;;;;;;14.93;100.00;100549.97;3053953;19;1092;-49
2022/07/16 04:03:16;;;;;;;;;;;;;;;14.95;100.00;100548.03;3054003;19;1065;-50
2022/07/16 04:04:18;;;;;;;;;;;;;;;14.97;100.00;100548.75;3053269;19;1849;-49
2022/07/16 04:05:23;;;;;;;;;;;;;;;15.00;100.00;100556.56;3053423;19;1066;-49
2022/07/16 04:06:25;;;;;;;;;;;;;;;15.03;100.00;100542.88;3053882;19;909;-50
2022/07/16 04:07:29;;;;;;;;;;;;;;;15.08;100.00;100538.88;3053756;19;1641;-49
2022/07/16 04:08:31;;;;;;;;;;;;;;;15.10;100.00;100538.72;3053556;19;1169;-50
2022/07/16 04:09:37;;;;;;;;;;;;;;;15.13;100.00;100546.53;3053568;19;913;-50
2022/07/16 04:10:39;;;;;;;;;;;;;;;15.18;100.00;100544.38;3053593;19;859;-52
2022/07/16 04:11:43;;;;;;;;;;;;;;;15.23;100.00;100536.75;3054176;19;1051;-52
2022/07/16 04:12:45;;;;;;;;;;;;;;;15.28;100.00;100539.94;3053809;19;1152;-49
2022/07/16 04:13:50;;;;;;;;;;;;;;;15.18;100.00;100519.31;3049878;19;1025;-50
2022/07/16 04:14:52;;;;;;;;;;;;;;;15.38;100.00;100540.06;3045638;19;958;-50
2022/07/16 04:15:56;;;;;;;;;;;;;;;15.44;100.00;100545.81;3046005;19;1158;-50
2022/07/16 04:16:58;;;;;;;;;;;;;;;15.50;100.00;100548.00;3047054;19;1347;-49
2022/07/16 04:18:03;;;;;;;;;;;;;;;15.57;100.00;100550.22;3048557;19;916;-50
2022/07/16 04:19:05;;;;;;;;;;;;;;;15.63;100.00;100550.56;3048590;19;920;-49
2022/07/16 04:20:09;;;;;;;;;;;;;;;15.68;100.00;100552.91;3047633;19;2530;-49
2022/07/16 04:21:11;;;;;;;;;;;;;;;15.75;100.00;100551.41;3050200;19;1002;-50
2022/07/16 04:22:16;;;;;;;;;;;;;;;15.81;100.00;100548.22;3053102;19;1066;-49
2022/07/16 04:23:18;;;;;;;;;;;;;;;15.88;100.00;100553.94;3053252;19;1079;-50
2022/07/16 04:24:22;;;;;;;;;;;;;;;15.94;100.00;100551.59;3053670;19;1860;-50
2022/07/16 04:25:24;;;;;;;;;;;;;;;15.98;100.00;100555.75;3053175;19;1069;-49
2022/07/16 04:26:28;;;;;;;;;;;;;;;16.04;100.00;100549.00;3053205;19;976;-50
2022/07/16 04:27:30;;;;;;;;;;;;;;;16.08;100.00;100551.28;3052441;19;1092;-52
2022/07/16 04:28:35;;;;;;;;;;;;;;;16.10;100.00;100549.34;3052501;19;985;-49
2022/07/16 04:29:37;;;;;;;;;;;;;;;16.12;100.00;100550.06;3053660;19;1776;-50
2022/07/16 04:30:41;;;;;;;;;;;;;;;16.16;100.00;100548.84;3053474;19;975;-50
2022/07/16 04:31:43;;;;;;;;;;;;;;;16.20;100.00;100544.88;3053551;19;1007;-49
2022/07/16 04:32:47;;;;;;;;;;;;;;;16.26;100.00;100554.31;3053677;19;1182;-50
2022/07/16 04:33:50;;;;;;;;;;;;;;;16.32;100.00;100553.75;3053333;19;1170;-49
2022/07/16 04:34:54;;;;;;;;;;;;;;;16.38;100.00;100557.78;3052908;19;965;-50
2022/07/16 04:35:57;;;;;;;;;;;;;;;16.42;100.00;100546.59;3050284;19;1504;-49
2022/07/16 04:37:01;;;;;;;;;;;;;;;16.51;100.00;100558.47;3046649;19;1072;-50
2022/07/16 04:38:03;;;;;;;;;;;;;;;16.59;100.00;100553.25;3047101;19;1210;-52
2022/07/16 04:39:08;;;;;;;;;;;;;;;16.59;100.00;100539.78;3047307;19;933;-49
2022/07/16 04:40:10;;;;;;;;;;;;;;;16.72;100.00;100555.78;3048836;19;1026;-49
2022/07/16 04:41:15;;;;;;;;;;;;;;;16.79;100.00;100547.03;3048619;19;943;-50
2022/07/16 04:42:17;;;;;;;;;;;;;;;16.84;100.00;100547.50;3048537;19;964;-50
2022/07/16 04:43:21;;;;;;;;;;;;;;;16.89;100.00;100553.38;3049687;19;972;-49
2022/07/16 04:44:23;;;;;;;;;;;;;;;16.92;100.00;100554.91;3052785;19;1251;-50
2022/07/16 04:45:28;;;;;;;;;;;;;;;16.92;100.00;100563.84;3052572;19;1850;-49
2022/07/16 04:46:30;;;;;;;;;;;;;;;16.96;100.00;100563.59;3053341;19;1027;-49
2022/07/16 04:47:34;;;;;;;;;;;;;;;16.96;100.00;100559.06;3053260;19;991;-49
2022/07/16 04:48:36;;;;;;;;;;;;;;;16.95;100.00;100556.50;3053204;19;1275;-50
2022/07/16 04:49:41;;;;;;;;;;;;;;;16.93;100.00;100559.31;3052730;19;1726;-50
2022/07/16 04:50:42;;;;;;;;;;;;;;;16.96;100.00;100558.22;3053613;19;1088;-50
2022/07/16 04:51:47;;;;;;;;;;;;;;;16.98;100.00;100558.94;3052866;19;889;-49
2022/07/16 04:52:49;;;;;;;;;;;;;;;17.00;100.00;100549.72;3053019;19;963;-50
2022/07/16 04:53:53;;;;;;;;;;;;;;;17.02;100.00;100547.75;3052700;19;1079;-50
2022/07/16 04:54:55;;;;;;;;;;;;;;;17.06;100.00;100553.72;3053457;19;1362;-50
2022/07/16 04:55:59;;;;;;;;;;;;;;;16.98;100.00;100542.75;3053085;19;1161;-49
2022/07/16 04:57:01;;;;;;;;;;;;;;;17.08;100.00;100551.75;3053425;19;1227;-50
2022/07/16 04:58:07;;;;;;;;;;;;;;;17.12;100.00;100553.19;3052233;19;1051;-50
2022/07/16 04:59:08;;;;;;;;;;;;;;;17.12;100.00;100558.59;3046134;19;1335;-50
2022/07/16 05:00:13;;;;;;;;;;;;;;;17.11;100.00;100556.88;3045261;19;1091;-50
2022/07/16 05:01:15;;;;;;;;;;;;;;;17.11;100.00;100552.34;3045240;19;903;-50
2022/07/16 05:03:36;;;;;;;;;;;;;;;17.13;100.00;100554.91;3051061;19;1410;-50
2022/07/16 05:04:38;;;;;;;;;;;;;;;17.15;100.00;100552.91;3051433;19;1182;-50
2022/07/16 05:05:43;;;;;;;;;;;;;;;17.19;100.00;100554.34;3051278;19;1848;-50
2022/07/16 05:06:45;;;;;;;;;;;;;;;17.21;100.00;100555.94;3055766;19;908;-50
2022/07/16 05:07:50;;;;;;;;;;;;;;;17.24;100.00;100547.56;3055831;19;1696;-50
2022/07/16 05:08:56;;;;;;;;;;;;;;;17.31;100.00;100550.56;3056049;19;999;-50
2022/07/16 05:09:58;;;;;;;;;;;;;;;17.39;100.00;100549.91;3054642;19;1345;-50
2022/07/16 05:11:02;;;;;;;;;;;;;;;17.47;100.00;100548.22;3055925;19;956;-50
2022/07/16 05:12:04;;;;;;;;;;;;;;;17.55;100.00;100553.78;3055877;19;944;-50
2022/07/16 05:13:10;;;;;;;;;;;;;;;17.64;100.00;100549.41;3055833;19;1880;-50
2022/07/16 05:14:12;;;;;;;;;;;;;;;17.74;100.00;100549.47;3056629;19;928;-50
2022/07/16 05:15:16;;;;;;;;;;;;;;;17.82;100.00;100552.31;3055399;19;1136;-50
2022/07/16 05:16:21;;;;;;;;;;;;;;;17.90;100.00;100552.47;3055535;19;988;-50
2022/07/16 05:17:24;;;;;;;;;;;;;;;18.00;100.00;100551.47;3055790;19;1153;-49
2022/07/16 05:18:29;;;;;;;;;;;;;;;18.10;100.00;100556.91;3056071;19;927;-50
2022/07/16 05:19:30;;;;;;;;;;;;;;;18.21;100.00;100551.38;3056282;19;948;-50
2022/07/16 05:20:35;;;;;;;;;;;;;;;18.28;100.00;100547.09;3054704;19;1083;-50
2022/07/16 05:21:37;;;;;;;;;;;;;;;18.29;100.00;100535.28;3047527;19;1284;-49
2022/07/16 05:22:42;;;;;;;;;;;;;;;18.48;100.00;100544.38;3048269;19;1379;-50
2022/07/16 05:23:46;;;;;;;;;;;;;;;18.58;100.00;100550.69;3048582;19;1205;-50
2022/07/16 05:24:48;;;;;;;;;;;;;;;18.70;100.00;100561.19;3051268;19;1102;-49
2022/07/16 05:25:52;;;;;;;;;;;;;;;18.82;100.00;100559.19;3049583;19;1854;-51
2022/07/16 05:26:54;;;;;;;;;;;;;;;18.97;100.00;100560.41;3050249;19;1199;-49
2022/07/16 05:27:59;;;;;;;;;;;;;;;19.12;100.00;100549.97;3051522;19;1689;-50
2022/07/16 05:29:02;;;;;;;;;;;;;;;19.28;99.55;100561.03;3056248;19;997;-49
2022/07/16 05:30:06;;;;;;;;;;;;;;;19.43;97.91;100550.56;3054661;19;1093;-50
2022/07/16 05:31:13;;;;;;;;;;;;;;;19.55;95.93;100552.09;3055805;19;1508;-49
2022/07/16 05:32:17;;;;;;;;;;;;;;;19.71;94.32;100562.25;3055492;19;981;-49